createdAt,value
2022-12-28T00:00:32.261Z,2.20
2022-12-28T00:03:18.289Z,2.20
2022-12-28T00:06:04.810Z,2.10
2022-12-28T00:08:54.714Z,2.00
2022-12-28T00:11:40.643Z,2.10
2022-12-28T00:14:26.631Z,2.10
2022-12-28T00:17:12.704Z,2.10
2022-12-28T00:19:59.423Z,2.10
2022-12-28T00:22:45.227Z,2.10
2022-12-28T00:25:34.226Z,2.10
2022-12-28T00:28:20.356Z,1.90
2022-12-28T00:31:06.342Z,1.80
2022-12-28T00:33:52.394Z,1.70
2022-12-28T00:37:08.970Z,1.80
2022-12-28T00:39:43.602Z,1.90
2022-12-28T00:42:35.725Z,2.00
2022-12-28T00:45:22.775Z,2.10
2022-12-28T00:48:08.902Z,2.20
2022-12-28T00:51:21.303Z,2.10
2022-12-28T00:54:07.269Z,2.10
2022-12-28T00:56:52.947Z,2.10
2022-12-28T00:59:39.002Z,2.00
2022-12-28T01:02:25.081Z,1.90
2022-12-28T01:05:11.215Z,1.80
2022-12-28T01:07:57.108Z,1.90
2022-12-28T01:10:43.127Z,1.80
2022-12-28T01:13:29.282Z,1.90
2022-12-28T01:16:18.349Z,1.90
2022-12-28T01:19:06.461Z,1.90
2022-12-28T01:21:52.643Z,1.90
2022-12-28T01:24:38.487Z,2.00
2022-12-28T01:27:24.450Z,1.80
2022-12-28T01:30:11.324Z,1.70
2022-12-28T01:33:00.421Z,1.70
2022-12-28T01:35:46.678Z,1.80
2022-12-28T01:38:32.387Z,1.80
2022-12-28T01:41:19.021Z,1.80
2022-12-28T01:44:04.825Z,1.80
2022-12-28T01:46:52.253Z,1.80
2022-12-28T01:49:38.370Z,1.80
2022-12-28T01:52:30.931Z,1.80
2022-12-28T01:55:20.647Z,2.00
2022-12-28T01:58:09.638Z,2.10
2022-12-28T02:00:55.531Z,2.30
2022-12-28T02:03:41.403Z,2.40
2022-12-28T02:06:27.177Z,2.50
2022-12-28T02:09:16.983Z,2.70
2022-12-28T02:12:03.039Z,2.80
2022-12-28T02:14:48.786Z,2.70
2022-12-28T02:17:34.903Z,2.70
2022-12-28T02:20:26.298Z,2.70
2022-12-28T02:23:32.277Z,2.70
2022-12-28T02:26:36.964Z,2.70
2022-12-28T02:29:22.966Z,2.70
2022-12-28T02:32:29.681Z,2.80
2022-12-28T02:35:36.096Z,2.60
2022-12-28T02:38:38.173Z,2.60
2022-12-28T02:41:25.302Z,2.60
2022-12-28T02:44:12.879Z,2.60
2022-12-28T02:47:18.360Z,2.60
2022-12-28T02:50:07.623Z,2.60
2022-12-28T02:53:01.148Z,2.60
2022-12-28T02:56:07.177Z,2.60
2022-12-28T02:59:12.017Z,2.60
2022-12-28T03:02:01.098Z,2.50
2022-12-28T03:04:56.554Z,2.50
2022-12-28T03:08:08.867Z,2.50
2022-12-28T03:10:55.199Z,2.50
2022-12-28T03:13:47.573Z,2.60
2022-12-28T03:16:58.390Z,2.60
2022-12-28T03:20:06.566Z,2.60
2022-12-28T03:23:11.194Z,2.70
2022-12-28T03:26:16.559Z,2.70
2022-12-28T03:29:25.597Z,2.70
2022-12-28T03:32:11.814Z,2.60
2022-12-28T03:34:57.841Z,2.70
2022-12-28T03:37:53.977Z,2.70
2022-12-28T03:40:44.430Z,2.80
2022-12-28T03:43:41.843Z,2.90
2022-12-28T03:46:30.390Z,3.00
2022-12-28T03:49:17.330Z,3.10
2022-12-28T03:52:03.588Z,3.20
2022-12-28T03:54:49.521Z,3.20
2022-12-28T03:57:36.999Z,3.20
2022-12-28T04:00:26.323Z,3.20
2022-12-28T04:03:13.848Z,3.20
2022-12-28T04:05:59.763Z,3.20
2022-12-28T04:08:46.408Z,3.30
2022-12-28T04:11:32.787Z,3.40
2022-12-28T04:14:19.731Z,3.50
2022-12-28T04:17:11.789Z,3.50
2022-12-28T04:20:01.541Z,3.60
2022-12-28T04:22:47.719Z,3.70
2022-12-28T04:25:33.716Z,3.70
2022-12-28T04:28:19.768Z,3.70
2022-12-28T04:31:24.490Z,3.60
2022-12-28T04:34:30.741Z,3.70
2022-12-28T04:37:23.416Z,3.60
2022-12-28T04:40:09.591Z,3.60
2022-12-28T04:42:55.430Z,3.60
2022-12-28T04:45:41.981Z,3.50
2022-12-28T04:48:27.966Z,3.50
2022-12-28T04:51:13.966Z,3.40
2022-12-28T04:53:59.926Z,3.40
2022-12-28T04:56:45.833Z,3.30
2022-12-28T04:59:31.887Z,3.30
2022-12-28T05:02:17.899Z,3.40
2022-12-28T05:05:03.988Z,3.40
2022-12-28T05:07:49.806Z,3.40
2022-12-28T05:10:35.795Z,3.40
2022-12-28T05:13:21.875Z,3.30
2022-12-28T05:16:09.411Z,3.40
2022-12-28T05:18:56.568Z,3.30
2022-12-28T05:21:42.710Z,3.40
2022-12-28T05:24:28.838Z,3.40
2022-12-28T05:27:14.584Z,3.30
2022-12-28T05:30:00.684Z,3.40
2022-12-28T05:32:46.603Z,3.40
2022-12-28T05:35:32.598Z,3.40
2022-12-28T05:38:18.670Z,3.50
2022-12-28T05:41:05.796Z,3.50
2022-12-28T05:43:52.094Z,3.50
2022-12-28T05:46:38.227Z,3.50
2022-12-28T05:49:24.147Z,3.50
2022-12-28T05:52:10.143Z,3.50
2022-12-28T05:54:56.005Z,3.50
2022-12-28T05:57:42.095Z,3.50
2022-12-28T06:00:28.394Z,3.60
2022-12-28T06:03:14.233Z,3.60
2022-12-28T06:06:20.446Z,3.60
2022-12-28T06:09:06.679Z,3.60
2022-12-28T06:11:52.790Z,3.60
2022-12-28T06:14:38.727Z,3.70
2022-12-28T06:17:24.835Z,3.70
2022-12-28T06:20:11.144Z,3.70
2022-12-28T06:22:57.957Z,3.70
2022-12-28T06:25:44.175Z,3.70
2022-12-28T06:28:29.891Z,3.70
2022-12-28T06:31:17.475Z,3.80
2022-12-28T06:34:05.055Z,3.80
2022-12-28T06:36:52.558Z,3.80
2022-12-28T06:39:38.854Z,3.70
2022-12-28T06:42:25.020Z,3.80
2022-12-28T06:45:11.053Z,3.80
2022-12-28T06:47:56.968Z,3.80
2022-12-28T06:50:43.132Z,3.70
2022-12-28T06:53:30.082Z,3.70
2022-12-28T06:56:17.485Z,3.70
2022-12-28T06:59:04.451Z,3.70
2022-12-28T07:01:50.517Z,3.80
2022-12-28T07:04:36.855Z,3.80
2022-12-28T07:07:22.685Z,3.80
2022-12-28T07:10:08.685Z,3.80
2022-12-28T07:12:54.467Z,3.80
2022-12-28T07:15:40.608Z,3.90
2022-12-28T07:18:27.511Z,3.90
2022-12-28T07:21:21.619Z,3.90
2022-12-28T07:24:07.914Z,3.90
2022-12-28T07:26:53.946Z,4.00
2022-12-28T07:29:42.214Z,4.00
2022-12-28T07:32:28.164Z,4.00
2022-12-28T07:35:14.303Z,4.00
2022-12-28T07:38:00.234Z,4.00
2022-12-28T07:40:46.358Z,4.00
2022-12-28T07:43:32.747Z,4.10
2022-12-28T07:46:20.131Z,4.10
2022-12-28T07:49:06.573Z,4.10
2022-12-28T07:51:52.965Z,4.20
2022-12-28T07:54:38.718Z,4.20
2022-12-28T07:57:24.606Z,4.20
2022-12-28T08:00:10.643Z,4.30
2022-12-28T08:02:59.469Z,4.40
2022-12-28T08:05:45.833Z,4.40
2022-12-28T08:08:33.992Z,4.50
2022-12-28T08:11:21.907Z,4.60
2022-12-28T08:14:08.416Z,4.70
2022-12-28T08:16:54.494Z,4.70
2022-12-28T08:19:40.565Z,4.80
2022-12-28T08:22:26.729Z,4.80
2022-12-28T08:25:12.798Z,4.90
2022-12-28T08:27:58.599Z,4.90
2022-12-28T08:30:44.674Z,5.00
2022-12-28T08:33:30.699Z,5.10
2022-12-28T08:36:16.766Z,5.10
2022-12-28T08:39:02.987Z,5.20
2022-12-28T08:41:48.782Z,5.30
2022-12-28T08:44:34.849Z,5.30
2022-12-28T08:47:21.031Z,5.30
2022-12-28T08:50:07.746Z,5.20
2022-12-28T08:52:53.702Z,5.30
2022-12-28T08:55:39.704Z,5.30
2022-12-28T08:58:25.587Z,5.40
2022-12-28T09:01:13.226Z,5.50
2022-12-28T09:03:59.729Z,5.50
2022-12-28T09:06:45.543Z,5.60
2022-12-28T09:09:31.323Z,5.60
2022-12-28T09:12:17.408Z,5.70
2022-12-28T09:15:03.506Z,5.80
2022-12-28T09:17:49.456Z,5.90
2022-12-28T09:20:35.539Z,6.00
2022-12-28T09:23:21.471Z,6.10
2022-12-28T09:26:12.023Z,6.30
2022-12-28T09:29:00.020Z,6.40
2022-12-28T09:31:45.822Z,6.60
2022-12-28T09:34:36.048Z,6.60
2022-12-28T09:37:23.076Z,6.80
2022-12-28T09:40:09.185Z,6.90
2022-12-28T09:42:55.600Z,7.10
2022-12-28T09:45:43.271Z,7.10
2022-12-28T09:48:31.103Z,7.10
2022-12-28T09:51:17.438Z,7.20
2022-12-28T09:54:04.446Z,7.40
2022-12-28T09:56:51.168Z,7.80
2022-12-28T09:59:36.970Z,8.50
2022-12-28T10:02:23.192Z,9.20
2022-12-28T10:05:09.203Z,9.80
2022-12-28T10:07:57.632Z,10.10
2022-12-28T10:10:48.444Z,10.20
2022-12-28T10:13:54.256Z,10.40
2022-12-28T10:16:46.932Z,10.50
2022-12-28T10:19:34.663Z,10.30
2022-12-28T10:22:21.939Z,9.90
2022-12-28T10:25:12.815Z,9.40
2022-12-28T10:28:00.309Z,9.00
2022-12-28T10:30:47.538Z,8.60
2022-12-28T10:33:36.469Z,8.40
2022-12-28T10:36:24.617Z,8.30
2022-12-28T10:39:15.806Z,8.20
2022-12-28T10:42:02.162Z,8.20
2022-12-28T10:44:48.591Z,8.30
2022-12-28T10:47:36.047Z,8.40
2022-12-28T10:50:40.098Z,8.50
2022-12-28T10:53:26.535Z,8.50
2022-12-28T10:56:12.486Z,8.50
2022-12-28T10:59:11.336Z,8.40
2022-12-28T11:02:16.263Z,8.40
2022-12-28T11:05:03.458Z,8.70
2022-12-28T11:07:50.229Z,9.60
2022-12-28T11:10:37.542Z,10.60
2022-12-28T11:13:23.251Z,11.50
2022-12-28T11:16:12.583Z,12.30
2022-12-28T11:18:58.830Z,13.10
2022-12-28T11:21:45.124Z,13.70
2022-12-28T11:24:37.655Z,14.20
2022-12-28T11:27:25.288Z,14.30
2022-12-28T11:30:17.797Z,14.40
2022-12-28T11:33:07.018Z,14.60
2022-12-28T11:35:59.075Z,14.20
2022-12-28T11:38:47.806Z,13.60
2022-12-28T11:41:36.866Z,12.80
2022-12-28T11:44:34.841Z,12.20
2022-12-28T11:47:33.559Z,12.40
2022-12-28T11:50:34.772Z,12.80
2022-12-28T11:53:40.541Z,13.60
2022-12-28T11:56:44.670Z,13.70
2022-12-28T11:59:35.110Z,13.70
2022-12-28T12:02:21.050Z,14.00
2022-12-28T12:05:25.866Z,14.00
2022-12-28T12:08:11.799Z,13.70
2022-12-28T12:11:16.731Z,13.80
2022-12-28T12:14:03.072Z,13.80
2022-12-28T12:16:54.044Z,13.60
2022-12-28T12:19:42.547Z,13.30
2022-12-28T12:22:30.239Z,13.00
2022-12-28T12:25:16.191Z,12.90
2022-12-28T12:28:19.889Z,13.10
2022-12-28T12:31:12.747Z,13.60
2022-12-28T12:34:03.796Z,14.00
2022-12-28T12:36:59.427Z,14.70
2022-12-28T12:39:54.543Z,15.50
2022-12-28T12:42:52.670Z,16.50
2022-12-28T12:45:51.056Z,16.60
2022-12-28T12:48:52.219Z,15.90
2022-12-28T12:51:38.294Z,15.00
2022-12-28T12:54:24.182Z,13.90
2022-12-28T12:57:33.309Z,13.40
2022-12-28T13:00:20.519Z,13.10
2022-12-28T13:03:06.743Z,12.60
2022-12-28T13:05:53.739Z,12.30
2022-12-28T13:08:47.317Z,12.00
2022-12-28T13:11:36.363Z,11.90
2022-12-28T13:14:24.221Z,11.70
2022-12-28T13:17:13.855Z,11.50
2022-12-28T13:20:20.002Z,11.40
2022-12-28T13:23:05.599Z,11.30
2022-12-28T13:25:53.399Z,11.10
2022-12-28T13:28:45.722Z,11.10
2022-12-28T13:31:36.081Z,11.10
2022-12-28T13:34:23.638Z,11.10
2022-12-28T13:37:14.982Z,11.10
2022-12-28T13:40:15.786Z,11.10
2022-12-28T13:43:16.624Z,11.00
2022-12-28T13:46:08.186Z,11.00
2022-12-28T13:48:57.854Z,10.80
2022-12-28T13:51:48.397Z,10.70
2022-12-28T13:54:37.794Z,10.50
2022-12-28T14:00:31.677Z,10.30
2022-12-28T14:03:18.407Z,10.20
2022-12-28T14:06:04.532Z,10.20
2022-12-28T14:08:50.639Z,10.10
2022-12-28T14:11:36.886Z,10.10
2022-12-28T14:14:22.598Z,10.00
2022-12-28T14:17:08.940Z,10.00
2022-12-28T14:19:55.937Z,10.00
2022-12-28T14:22:42.250Z,10.00
2022-12-28T14:25:28.145Z,10.00
2022-12-28T14:28:18.433Z,10.00
2022-12-28T14:31:05.586Z,10.00
2022-12-28T14:33:59.521Z,10.10
2022-12-28T14:36:48.827Z,10.20
2022-12-28T14:39:36.672Z,10.00
2022-12-28T14:42:26.078Z,10.10
2022-12-28T14:45:22.529Z,10.10
2022-12-28T14:48:21.341Z,10.70
2022-12-28T14:51:17.609Z,12.10
2022-12-28T14:54:15.975Z,13.20
2022-12-28T14:57:03.784Z,14.20
2022-12-28T14:59:53.140Z,14.00
2022-12-28T15:02:41.213Z,13.60
2022-12-28T15:05:33.329Z,12.70
2022-12-28T15:08:19.354Z,11.90
2022-12-28T15:13:57.165Z,10.80
2022-12-28T15:16:43.001Z,10.50
2022-12-28T15:19:28.875Z,10.30
2022-12-28T15:22:14.931Z,10.00
2022-12-28T15:25:01.142Z,9.90
2022-12-28T15:27:50.984Z,9.80
2022-12-28T15:30:39.354Z,9.70
2022-12-28T15:33:25.112Z,9.60
2022-12-28T15:36:17.406Z,9.60
2022-12-28T15:39:04.665Z,9.50
2022-12-28T15:41:50.543Z,9.40
2022-12-28T15:44:36.478Z,9.30
2022-12-28T15:47:23.307Z,9.30
2022-12-28T15:50:09.989Z,9.20
2022-12-28T15:52:56.067Z,9.10
2022-12-28T15:55:42.239Z,8.90
2022-12-28T15:58:28.440Z,8.80
2022-12-28T16:01:14.487Z,8.70
2022-12-28T16:04:01.241Z,8.60
2022-12-28T16:06:47.233Z,8.60
2022-12-28T16:09:33.246Z,8.50
2022-12-28T16:12:19.246Z,8.40
2022-12-28T16:15:05.793Z,8.40
2022-12-28T16:17:57.305Z,8.40
2022-12-28T16:20:43.651Z,8.40
2022-12-28T16:23:32.016Z,8.30
2022-12-28T16:26:18.372Z,8.20
2022-12-28T16:29:05.031Z,8.20
2022-12-28T16:31:52.551Z,8.10
2022-12-28T16:34:38.316Z,8.10
2022-12-28T16:37:24.391Z,8.10
2022-12-28T16:40:10.866Z,8.00
2022-12-28T16:42:56.806Z,7.90
2022-12-28T16:45:44.043Z,7.70
2022-12-28T16:48:29.997Z,7.60
2022-12-28T16:51:16.033Z,7.60
2022-12-28T16:54:01.973Z,7.50
2022-12-28T16:56:48.913Z,7.60
2022-12-28T16:59:35.015Z,7.60
2022-12-28T17:02:22.070Z,7.50
2022-12-28T17:05:08.411Z,7.40
2022-12-28T17:07:54.115Z,7.30
2022-12-28T17:10:43.541Z,7.20
2022-12-28T17:13:29.607Z,7.10
2022-12-28T17:16:15.736Z,7.10
2022-12-28T17:19:01.936Z,7.20
2022-12-28T17:21:48.007Z,7.00
2022-12-28T17:24:34.076Z,7.00
2022-12-28T17:27:19.932Z,7.00
2022-12-28T17:30:06.143Z,7.00
2022-12-28T17:32:53.209Z,6.90
2022-12-28T17:35:39.450Z,6.90
2022-12-28T17:38:25.612Z,6.90
2022-12-28T17:41:13.778Z,7.00
2022-12-28T17:44:00.285Z,6.90
2022-12-28T17:46:46.171Z,6.80
2022-12-28T17:49:32.603Z,6.80
2022-12-28T17:52:21.779Z,6.90
2022-12-28T17:55:08.569Z,6.90
2022-12-28T17:57:54.598Z,6.90
2022-12-28T18:00:40.953Z,6.90
2022-12-28T18:03:31.663Z,6.80
2022-12-28T18:06:19.444Z,6.70
2022-12-28T18:09:05.622Z,6.60
2022-12-28T18:11:51.598Z,6.60
2022-12-28T18:14:37.658Z,6.50
2022-12-28T18:17:23.753Z,6.40
2022-12-28T18:20:10.192Z,6.40
2022-12-28T18:22:56.199Z,6.40
2022-12-28T18:25:42.308Z,6.40
2022-12-28T18:28:28.326Z,6.40
2022-12-28T18:31:14.626Z,6.50
2022-12-28T18:34:02.403Z,6.60
2022-12-28T18:36:48.465Z,6.60
2022-12-28T18:39:35.523Z,6.70
2022-12-28T18:42:21.754Z,6.70
2022-12-28T18:45:07.859Z,6.60
2022-12-28T18:47:53.673Z,6.60
2022-12-28T18:50:39.678Z,6.70
2022-12-28T18:53:26.707Z,6.70
2022-12-28T18:56:12.806Z,6.60
2022-12-28T18:58:58.948Z,6.60
2022-12-28T19:04:53.419Z,6.60
2022-12-28T19:07:42.105Z,6.50
2022-12-28T19:10:31.855Z,6.50
2022-12-28T19:13:17.786Z,6.40
2022-12-28T19:16:04.277Z,6.40
2022-12-28T19:18:50.395Z,6.30
2022-12-28T19:21:37.709Z,6.30
2022-12-28T19:24:23.751Z,6.40
2022-12-28T19:27:09.703Z,6.50
2022-12-28T19:29:55.715Z,6.50
2022-12-28T19:32:41.599Z,6.50
2022-12-28T19:35:27.592Z,6.50
2022-12-28T19:38:13.837Z,6.50
2022-12-28T19:41:03.177Z,6.40
2022-12-28T19:43:49.215Z,6.40
2022-12-28T19:46:35.336Z,6.40
2022-12-28T19:49:21.308Z,6.40
2022-12-28T19:52:07.273Z,6.30
2022-12-28T19:54:53.410Z,6.40
2022-12-28T19:57:39.872Z,6.40
2022-12-28T20:00:25.784Z,6.50
2022-12-28T20:03:12.695Z,6.50
2022-12-28T20:06:04.884Z,6.50
2022-12-28T20:08:52.625Z,6.50
2022-12-28T20:11:38.856Z,6.50
2022-12-28T20:14:25.447Z,6.50
2022-12-28T20:17:11.287Z,6.50
2022-12-28T20:19:57.163Z,6.40
2022-12-28T20:22:43.246Z,6.40
2022-12-28T20:25:29.283Z,6.40
2022-12-28T20:28:15.192Z,6.30
2022-12-28T20:31:05.633Z,6.30
2022-12-28T20:33:52.030Z,6.30
2022-12-28T20:36:37.786Z,6.30
2022-12-28T20:39:23.878Z,6.20
2022-12-28T20:42:32.330Z,6.20
2022-12-28T20:45:18.739Z,6.20
2022-12-28T20:48:04.884Z,6.10
2022-12-28T20:50:55.473Z,6.10
2022-12-28T20:53:41.286Z,6.10
2022-12-28T20:56:27.615Z,6.00
2022-12-28T20:59:14.041Z,6.00
2022-12-28T21:02:00.359Z,6.00
2022-12-28T21:04:46.357Z,6.00
2022-12-28T21:07:32.605Z,6.00
2022-12-28T21:10:18.541Z,6.00
2022-12-28T21:13:04.485Z,6.00
2022-12-28T21:15:50.815Z,6.00
2022-12-28T21:18:36.867Z,6.00
2022-12-28T21:21:22.926Z,5.90
2022-12-28T21:24:09.201Z,5.90
2022-12-28T21:26:55.102Z,5.80
2022-12-28T21:29:41.206Z,5.80
2022-12-28T21:32:27.495Z,5.90
2022-12-28T21:35:13.329Z,5.90
2022-12-28T21:37:59.450Z,5.90
2022-12-28T21:40:45.798Z,5.90
2022-12-28T21:43:32.047Z,5.90
2022-12-28T21:46:17.977Z,6.00
2022-12-28T21:49:04.687Z,6.00
2022-12-28T21:51:51.428Z,6.00
2022-12-28T21:54:37.303Z,6.00
2022-12-28T21:57:23.096Z,6.00
2022-12-28T22:00:34.178Z,6.00
2022-12-28T22:03:38.577Z,6.00
2022-12-28T22:06:24.416Z,6.10
2022-12-28T22:09:29.184Z,6.10
2022-12-28T22:12:33.703Z,6.10
2022-12-28T22:15:40.126Z,6.20
2022-12-28T22:21:31.795Z,6.20
2022-12-28T22:24:17.760Z,6.10
2022-12-28T22:27:03.754Z,6.00
2022-12-28T22:29:49.799Z,6.00
2022-12-28T22:32:36.079Z,6.00
2022-12-28T22:35:22.494Z,5.90
2022-12-28T22:38:08.568Z,5.90
2022-12-28T22:40:58.573Z,5.80
2022-12-28T22:43:48.672Z,5.80
2022-12-28T22:46:34.516Z,5.70
2022-12-28T22:49:20.511Z,5.70
2022-12-28T22:52:06.530Z,5.70
2022-12-28T22:54:52.556Z,5.70
2022-12-28T22:57:38.536Z,5.80
2022-12-28T23:00:24.705Z,5.70
2022-12-28T23:03:10.591Z,5.60
2022-12-28T23:05:56.820Z,5.60
2022-12-28T23:08:42.898Z,5.50
2022-12-28T23:11:39.346Z,5.60
2022-12-28T23:14:44.569Z,5.60
2022-12-28T23:17:30.351Z,5.60
2022-12-28T23:20:35.682Z,5.60
2022-12-28T23:23:40.146Z,5.60
2022-12-28T23:26:44.664Z,5.50
2022-12-28T23:29:30.936Z,5.50
2022-12-28T23:32:16.945Z,5.40
2022-12-28T23:35:03.983Z,5.40
2022-12-28T23:37:50.255Z,5.50
2022-12-28T23:40:37.957Z,5.50
2022-12-28T23:43:23.986Z,5.60
2022-12-28T23:46:09.904Z,5.70
2022-12-28T23:48:55.977Z,5.70
2022-12-28T23:51:42.708Z,5.70
2022-12-28T23:54:28.514Z,5.70
2022-12-28T23:57:14.594Z,5.60
